createdAt,value
2022-10-17T00:00:45.723Z,53793.65
2022-10-17T00:01:48.738Z,53809.68
2022-10-17T00:02:51.308Z,53826.72
2022-10-17T00:03:54.865Z,53828.73
2022-10-17T00:04:57.844Z,53854.79
2022-10-17T00:06:01.437Z,53848.77
2022-10-17T00:07:04.913Z,53913.92
2022-10-17T00:08:08.203Z,53905.90
2022-10-17T00:09:11.383Z,53958.02
2022-10-17T00:10:14.168Z,54005.13
2022-10-17T00:11:18.261Z,54025.17
2022-10-17T00:12:21.234Z,54070.28
2022-10-17T00:13:24.366Z,54074.29
2022-10-17T00:14:27.198Z,54023.17
2022-10-17T00:15:30.274Z,54117.39
2022-10-17T00:16:33.250Z,54118.39
2022-10-17T00:17:36.639Z,54172.51
2022-10-17T00:18:40.533Z,54244.68
2022-10-17T00:19:43.512Z,54283.77
2022-10-17T00:20:46.483Z,54339.91
2022-10-17T00:21:49.558Z,54377.00
2022-10-17T00:22:52.548Z,54438.14
2022-10-17T00:23:55.627Z,54512.32
2022-10-17T00:24:58.800Z,54598.53
2022-10-17T00:26:01.694Z,54680.73
2022-10-17T00:27:04.561Z,54781.98
2022-10-17T00:28:07.663Z,54793.01
2022-10-17T00:29:10.795Z,54869.20
2022-10-17T00:30:13.692Z,54874.21
2022-10-17T00:31:16.874Z,54943.39
2022-10-17T00:32:19.854Z,55021.58
2022-10-17T00:33:22.819Z,55101.79
2022-10-17T00:34:25.700Z,55142.89
2022-10-17T00:35:28.524Z,55245.16
2022-10-17T00:36:31.851Z,55297.30
2022-10-17T00:37:37.801Z,55285.26
2022-10-17T00:38:40.780Z,55470.75
2022-10-17T00:39:44.278Z,55569.02
2022-10-17T00:40:46.982Z,55644.22
2022-10-17T00:41:50.368Z,55807.66
2022-10-17T00:42:53.302Z,56044.32
2022-10-17T00:43:56.083Z,58912.39
2022-10-17T00:44:58.854Z,59210.45
2022-10-17T00:46:01.623Z,59516.56
2022-10-17T00:47:04.389Z,59805.64
2022-10-17T00:48:07.271Z,60022.45
2022-10-17T00:49:10.044Z,60205.15
2022-10-17T00:50:13.942Z,60330.64
2022-10-17T00:51:16.608Z,60435.04
2022-10-17T00:52:19.480Z,60668.96
2022-10-17T00:53:22.263Z,60647.88
2022-10-17T00:54:25.339Z,60564.55
2022-10-17T00:55:31.393Z,60558.53
2022-10-17T00:56:34.363Z,60488.25
2022-10-17T00:57:37.743Z,60471.18
2022-10-17T00:58:40.833Z,60416.97
2022-10-17T00:59:43.915Z,60509.33
2022-10-17T01:00:47.195Z,60505.32
2022-10-17T01:01:49.966Z,60519.37
2022-10-17T01:02:52.846Z,60574.59
2022-10-17T01:03:55.715Z,60629.81
2022-10-17T01:04:58.456Z,60670.97
2022-10-17T01:06:01.470Z,60682.02
2022-10-17T01:07:04.231Z,60680.01
2022-10-17T01:08:07.129Z,60784.42
2022-10-17T01:09:10.024Z,60754.30
2022-10-17T01:10:12.873Z,60713.14
2022-10-17T01:11:15.824Z,60741.25
2022-10-17T01:12:18.611Z,60735.23
2022-10-17T01:13:21.384Z,60825.59
2022-10-17T01:14:24.568Z,60808.52
2022-10-17T01:15:27.544Z,60814.54
2022-10-17T01:16:30.539Z,60833.62
2022-10-17T01:17:33.293Z,60815.55
2022-10-17T01:18:36.178Z,60859.73
2022-10-17T01:19:39.147Z,60805.51
2022-10-17T01:20:41.811Z,60839.64
2022-10-17T01:21:44.784Z,60828.60
2022-10-17T01:22:47.513Z,60866.75
2022-10-17T01:23:50.239Z,60848.68
2022-10-17T01:24:53.509Z,60846.67
2022-10-17T01:25:56.282Z,60893.86
2022-10-17T01:26:59.076Z,60853.70
2022-10-17T01:28:01.959Z,60876.79
2022-10-17T01:29:05.121Z,60876.79
2022-10-17T01:30:07.924Z,60894.87
2022-10-17T01:31:10.961Z,60898.88
2022-10-17T01:32:13.843Z,60911.93
2022-10-17T01:33:16.719Z,60937.04
2022-10-17T01:34:19.382Z,60924.99
2022-10-17T01:35:22.049Z,60951.09
2022-10-17T01:36:25.244Z,60915.95
2022-10-17T01:37:28.119Z,60889.85
2022-10-17T01:38:31.199Z,60951.09
2022-10-17T01:39:36.829Z,60921.98
2022-10-17T01:40:38.468Z,60992.26
2022-10-17T01:41:41.350Z,61001.29
2022-10-17T01:42:44.124Z,60998.28
2022-10-17T01:43:46.892Z,60975.19
2022-10-17T01:44:49.578Z,60977.20
2022-10-17T01:45:52.336Z,60999.29
2022-10-17T01:47:58.297Z,61022.38
2022-10-17T01:49:01.064Z,61000.29
2022-10-17T01:50:04.043Z,60993.26
2022-10-17T01:51:06.569Z,61038.45
2022-10-17T01:52:10.613Z,61006.32
2022-10-17T01:53:13.581Z,61044.47
2022-10-17T01:54:16.664Z,61037.44
2022-10-17T01:55:20.867Z,61034.43
2022-10-17T01:56:23.539Z,61042.46
2022-10-17T01:57:26.684Z,61041.46
2022-10-17T01:58:29.934Z,61018.36
2022-10-17T01:59:32.571Z,61018.36
2022-10-17T02:00:35.354Z,61044.47
2022-10-17T02:01:38.521Z,61041.46
2022-10-17T02:02:41.403Z,60988.24
2022-10-17T02:03:44.280Z,61060.54
2022-10-17T02:04:47.050Z,61101.70
2022-10-17T02:05:49.827Z,61046.48
2022-10-17T02:06:52.704Z,61098.69
2022-10-17T02:07:55.386Z,61107.73
2022-10-17T02:08:58.871Z,61115.76
2022-10-17T02:10:01.635Z,61121.79
2022-10-17T02:11:04.503Z,61122.79
2022-10-17T02:12:07.881Z,61122.79
2022-10-17T02:13:11.502Z,61161.95
2022-10-17T02:14:14.760Z,61148.89
2022-10-17T02:15:18.142Z,61159.94
2022-10-17T02:16:21.333Z,61134.84
2022-10-17T02:17:24.421Z,61146.89
2022-10-17T02:18:26.987Z,61097.69
2022-10-17T02:19:29.859Z,61148.89
2022-10-17T02:20:33.331Z,61115.76
2022-10-17T02:21:36.412Z,61155.93
2022-10-17T02:22:39.614Z,61137.85
2022-10-17T02:23:42.387Z,61142.87
2022-10-17T02:24:45.863Z,61099.70
2022-10-17T02:25:48.960Z,61117.77
2022-10-17T02:26:52.521Z,61128.81
2022-10-17T02:27:56.007Z,61090.66
2022-10-17T02:28:59.414Z,61162.95
2022-10-17T02:30:02.499Z,61156.93
2022-10-17T02:31:05.263Z,61134.84
2022-10-17T02:32:08.250Z,61151.91
2022-10-17T02:33:11.123Z,61122.79
2022-10-17T02:34:13.992Z,61121.79
2022-10-17T02:35:17.091Z,61148.89
2022-10-17T02:36:19.845Z,61134.84
2022-10-17T02:37:22.733Z,61168.98
2022-10-17T02:38:25.902Z,61182.03
2022-10-17T02:39:28.982Z,61142.87
2022-10-17T02:40:31.858Z,61115.76
2022-10-17T02:41:35.147Z,61156.93
2022-10-17T02:42:38.231Z,61165.96
2022-10-17T02:43:41.191Z,61182.03
2022-10-17T02:44:44.271Z,61188.05
2022-10-17T02:45:47.851Z,61174.00
2022-10-17T02:46:50.650Z,61191.07
2022-10-17T02:47:53.615Z,61147.89
2022-10-17T02:48:56.388Z,61221.19
2022-10-17T02:49:59.470Z,61206.13
2022-10-17T02:51:02.412Z,61192.07
2022-10-17T02:52:05.119Z,61162.95
2022-10-17T02:53:07.891Z,61171.99
2022-10-17T02:54:11.079Z,61207.13
2022-10-17T02:55:16.082Z,61213.16
2022-10-17T02:56:19.329Z,61177.01
2022-10-17T02:57:22.150Z,61211.15
2022-10-17T02:58:25.028Z,61180.02
2022-10-17T02:59:28.025Z,61117.77
2022-10-17T03:00:31.082Z,61168.98
2022-10-17T03:01:34.117Z,61029.41
2022-10-17T03:02:37.663Z,61103.71
2022-10-17T03:03:41.441Z,61136.84
2022-10-17T03:04:44.517Z,61162.95
2022-10-17T03:05:47.494Z,61197.09
2022-10-17T03:06:51.085Z,61229.22
2022-10-17T03:07:54.570Z,61241.27
2022-10-17T03:08:58.163Z,61148.89
2022-10-17T03:10:02.092Z,61256.34
2022-10-17T03:11:05.957Z,61253.32
2022-10-17T03:12:09.366Z,61246.29
2022-10-17T03:13:12.428Z,61285.45
2022-10-17T03:14:15.101Z,61296.50
2022-10-17T03:15:18.382Z,61292.48
2022-10-17T03:16:25.170Z,61316.58
2022-10-17T03:17:30.363Z,61317.59
2022-10-17T03:18:33.863Z,61295.50
2022-10-17T03:19:37.249Z,61321.61
2022-10-17T03:20:40.851Z,61285.45
2022-10-17T03:21:44.738Z,61317.59
2022-10-17T03:22:47.920Z,61313.57
2022-10-17T03:23:51.311Z,61276.42
2022-10-17T03:24:54.593Z,61324.62
2022-10-17T03:25:58.292Z,61347.71
2022-10-17T03:27:01.795Z,61312.57
2022-10-17T03:28:05.808Z,61358.76
2022-10-17T03:29:09.439Z,61397.92
2022-10-17T03:30:13.065Z,61387.88
2022-10-17T03:31:16.760Z,61365.79
2022-10-17T03:32:20.137Z,61393.90
2022-10-17T03:33:23.534Z,61397.92
2022-10-17T03:34:27.630Z,61363.78
2022-10-17T03:35:31.330Z,61390.89
2022-10-17T03:36:34.403Z,61423.02
2022-10-17T03:37:38.220Z,61379.84
2022-10-17T03:38:41.614Z,61378.84
2022-10-17T03:39:45.391Z,61409.97
2022-10-17T03:40:49.387Z,61387.88
2022-10-17T03:41:53.278Z,61422.02
2022-10-17T03:42:56.572Z,61368.80
2022-10-17T03:44:00.049Z,61379.84
2022-10-17T03:45:03.141Z,61385.87
2022-10-17T03:46:06.050Z,61420.01
2022-10-17T03:47:11.933Z,61362.77
2022-10-17T03:48:14.170Z,61352.73
2022-10-17T03:49:17.916Z,61351.73
2022-10-17T03:50:21.620Z,61389.89
2022-10-17T03:51:24.343Z,61414.99
2022-10-17T03:52:28.484Z,61427.04
2022-10-17T03:53:32.284Z,61407.96
2022-10-17T03:54:35.763Z,61379.84
2022-10-17T03:55:44.180Z,61417.00
2022-10-17T03:56:47.619Z,61428.05
2022-10-17T03:57:51.464Z,61403.95
2022-10-17T03:58:54.953Z,61442.11
2022-10-17T03:59:58.331Z,61417.00
2022-10-17T04:01:01.627Z,61420.01
2022-10-17T04:02:04.944Z,61424.03
2022-10-17T04:03:08.598Z,61439.09
2022-10-17T04:04:11.982Z,61397.92
2022-10-17T04:05:15.670Z,61430.05
2022-10-17T04:06:19.070Z,61406.96
2022-10-17T04:07:22.560Z,61378.84
2022-10-17T04:08:26.962Z,61371.81
2022-10-17T04:09:30.764Z,61410.98
2022-10-17T04:10:34.248Z,61428.05
2022-10-17T04:11:37.645Z,61403.95
2022-10-17T04:12:41.435Z,61421.02
2022-10-17T04:13:45.235Z,61412.98
2022-10-17T04:14:48.513Z,61405.95
2022-10-17T04:15:54.272Z,61449.13
2022-10-17T04:16:58.543Z,61385.87
2022-10-17T04:24:55.894Z,58938.48
2022-10-17T04:25:59.749Z,61388.88
2022-10-17T04:27:03.338Z,61369.80
2022-10-17T04:28:18.614Z,61389.89
2022-10-17T04:29:22.092Z,61290.48
2022-10-17T04:30:45.049Z,61412.98
2022-10-17T04:31:46.882Z,61409.97
2022-10-17T04:33:04.924Z,61431.06
2022-10-17T04:34:08.524Z,61408.96
2022-10-17T04:35:21.163Z,61410.98
2022-10-17T04:36:25.625Z,61374.82
2022-10-17T04:37:29.751Z,61384.87
2022-10-17T04:38:33.761Z,61374.82
2022-10-17T04:39:40.698Z,61307.55
2022-10-17T04:40:44.513Z,61298.51
2022-10-17T04:41:47.695Z,61395.91
2022-10-17T04:42:51.375Z,61434.07
2022-10-17T04:43:55.486Z,61436.08
2022-10-17T04:44:59.096Z,61430.05
2022-10-17T04:46:12.342Z,61393.90
2022-10-17T04:47:15.984Z,61402.94
2022-10-17T04:48:21.312Z,61411.98
2022-10-17T04:49:24.702Z,61432.06
2022-10-17T04:50:29.765Z,61405.95
2022-10-17T04:51:33.220Z,61312.57
2022-10-17T04:52:39.177Z,61400.93
2022-10-17T04:53:42.711Z,61408.96
2022-10-17T04:54:51.462Z,61464.20
2022-10-17T04:57:19.506Z,61295.50
2022-10-17T04:58:26.309Z,61448.13
2022-10-17T04:59:30.502Z,61411.98
2022-10-17T05:00:34.469Z,61422.02
2022-10-17T05:01:41.905Z,61458.17
2022-10-17T05:02:46.710Z,61455.16
2022-10-17T05:03:50.102Z,61347.71
2022-10-17T05:04:54.866Z,61349.72
2022-10-17T05:05:58.729Z,61343.70
2022-10-17T05:07:05.075Z,61446.12
2022-10-17T05:08:08.684Z,61411.98
2022-10-17T05:10:34.525Z,61453.15
2022-10-17T05:11:37.772Z,61507.37
2022-10-17T05:12:44.427Z,61479.26
2022-10-17T05:13:48.329Z,61494.32
2022-10-17T05:14:51.824Z,61510.39
2022-10-17T05:15:55.179Z,61494.32
2022-10-17T05:17:09.358Z,61488.30
2022-10-17T05:18:13.258Z,61479.26
2022-10-17T05:19:19.302Z,61470.22
2022-10-17T05:20:29.716Z,61471.23
2022-10-17T05:22:53.248Z,61413.99
2022-10-17T05:23:57.033Z,61432.06
2022-10-17T05:25:00.107Z,61419.01
2022-10-17T05:26:03.487Z,61404.95
2022-10-17T05:27:10.270Z,61471.23
2022-10-17T05:28:13.226Z,61504.36
2022-10-17T05:29:16.633Z,61509.38
2022-10-17T05:31:45.328Z,61470.22
2022-10-17T05:32:51.566Z,61527.46
2022-10-17T05:33:56.471Z,61502.36
2022-10-17T05:34:59.458Z,61474.24
2022-10-17T05:36:06.380Z,61548.55
2022-10-17T05:37:10.027Z,61468.21
2022-10-17T05:38:29.501Z,61494.32
2022-10-17T05:39:34.416Z,61485.28
2022-10-17T05:40:38.903Z,61523.44
2022-10-17T05:41:50.303Z,61502.36
2022-10-17T05:42:56.472Z,61496.33
2022-10-17T05:44:05.650Z,61545.54
2022-10-17T05:45:18.868Z,61485.28
2022-10-17T05:46:22.773Z,61529.46
2022-10-17T05:47:26.541Z,61539.51
2022-10-17T05:48:29.924Z,61451.14
2022-10-17T05:49:45.999Z,61504.36
2022-10-17T05:50:39.687Z,61518.42
2022-10-17T05:51:44.531Z,61502.36
2022-10-17T05:52:47.821Z,61451.14
2022-10-17T05:53:57.263Z,61483.27
2022-10-17T05:55:06.269Z,61473.23
2022-10-17T05:56:10.192Z,61515.41
2022-10-17T05:57:25.708Z,61497.33
2022-10-17T05:58:49.779Z,61502.36
2022-10-17T05:59:42.659Z,61512.39
2022-10-17T06:00:52.892Z,61531.48
2022-10-17T06:01:56.814Z,61462.19
2022-10-17T06:02:59.876Z,61482.27
2022-10-17T06:05:24.673Z,61460.18
2022-10-17T06:06:29.836Z,61519.43
2022-10-17T06:07:36.547Z,61393.90
2022-10-17T06:08:40.566Z,61435.07
2022-10-17T06:09:47.190Z,61381.86
2022-10-17T06:10:49.386Z,61349.72
2022-10-17T06:11:52.680Z,61372.82
2022-10-17T06:12:56.291Z,61404.95
2022-10-17T06:14:14.295Z,61378.84
2022-10-17T06:15:17.350Z,61367.80
2022-10-17T06:17:41.604Z,61381.86
2022-10-17T06:19:53.211Z,61408.96
2022-10-17T06:20:56.717Z,61401.94
2022-10-17T06:22:00.218Z,61460.18
2022-10-17T06:23:12.003Z,61446.12
2022-10-17T06:24:20.707Z,61461.18
2022-10-17T06:25:25.553Z,61437.08
2022-10-17T06:26:29.101Z,61487.29
2022-10-17T06:27:36.071Z,61505.37
2022-10-17T06:28:42.967Z,61473.23
2022-10-17T06:29:46.668Z,61524.45
2022-10-17T06:30:58.547Z,61514.40
2022-10-17T06:32:03.874Z,61494.32
2022-10-17T06:33:10.953Z,61514.40
2022-10-17T06:34:13.823Z,61500.34
2022-10-17T06:35:18.621Z,61512.39
2022-10-17T06:36:22.841Z,61532.48
2022-10-17T06:37:27.657Z,61497.33
2022-10-17T06:38:32.493Z,61470.22
2022-10-17T06:39:35.983Z,61490.30
2022-10-17T06:40:39.598Z,61564.61
2022-10-17T06:41:48.776Z,61534.49
2022-10-17T06:42:53.089Z,61458.17
2022-10-17T06:43:57.186Z,61461.18
2022-10-17T06:45:00.675Z,61498.34
2022-10-17T06:46:04.593Z,61487.29
2022-10-17T06:47:08.680Z,61540.51
2022-10-17T06:48:13.390Z,61490.30
2022-10-17T06:49:17.109Z,61542.52
2022-10-17T06:50:20.471Z,61551.56
2022-10-17T06:51:23.953Z,61522.44
2022-10-17T06:52:30.132Z,61515.41
2022-10-17T06:53:35.546Z,61470.22
2022-10-17T06:54:39.562Z,61482.27
2022-10-17T06:55:43.370Z,61512.39
2022-10-17T06:56:46.633Z,61550.55
2022-10-17T06:58:00.244Z,61480.26
2022-10-17T06:59:04.416Z,61475.24
2022-10-17T07:00:08.490Z,61465.20
2022-10-17T07:01:12.791Z,61494.32
2022-10-17T07:02:19.944Z,61477.25
2022-10-17T07:03:23.236Z,61484.28
2022-10-17T07:04:30.858Z,61484.28
2022-10-17T07:05:40.546Z,61521.43
2022-10-17T07:08:05.364Z,61495.32
2022-10-17T07:09:14.190Z,61492.31
2022-10-17T07:10:23.482Z,61480.26
2022-10-17T07:11:29.633Z,61531.48
2022-10-17T07:13:58.937Z,61503.36
2022-10-17T07:15:03.145Z,61564.61
2022-10-17T07:16:10.021Z,61516.41
2022-10-17T07:17:14.125Z,61538.50
2022-10-17T07:18:18.641Z,61535.49
2022-10-17T07:19:21.811Z,61514.40
2022-10-17T07:20:31.862Z,61501.35
2022-10-17T07:21:39.001Z,61552.56
2022-10-17T07:22:41.961Z,61553.57
2022-10-17T07:23:45.605Z,61530.47
2022-10-17T07:27:19.422Z,61484.28
2022-10-17T07:28:23.118Z,61540.51
2022-10-17T07:29:26.601Z,61519.43
2022-10-17T07:30:34.494Z,61555.57
2022-10-17T07:31:38.741Z,61563.61
2022-10-17T07:32:43.028Z,61566.62
2022-10-17T07:33:48.291Z,61534.49
2022-10-17T07:34:51.631Z,61544.53
2022-10-17T07:35:56.457Z,61504.36
2022-10-17T07:36:59.854Z,61533.48
2022-10-17T07:38:03.518Z,61511.39
2022-10-17T07:39:07.522Z,61491.31
2022-10-17T07:40:12.037Z,61511.39
2022-10-17T07:41:21.783Z,61474.24
2022-10-17T07:42:27.991Z,61497.33
2022-10-17T07:43:31.633Z,61520.43
2022-10-17T07:44:35.000Z,61462.19
2022-10-17T07:45:40.574Z,61473.23
2022-10-17T07:46:44.662Z,61443.11
2022-10-17T07:47:47.935Z,61461.18
2022-10-17T07:48:51.729Z,61450.14
2022-10-17T07:49:55.108Z,61472.23
2022-10-17T07:51:00.775Z,61439.09
2022-10-17T07:52:03.983Z,61391.89
2022-10-17T07:53:07.365Z,61363.78
2022-10-17T07:54:16.499Z,61395.91
2022-10-17T07:55:19.829Z,61379.84
2022-10-17T07:56:23.334Z,61395.91
2022-10-17T07:57:26.705Z,61379.84
2022-10-17T07:58:32.466Z,61337.67
2022-10-17T07:59:36.851Z,61348.71
2022-10-17T08:00:47.741Z,61304.53
2022-10-17T08:01:51.710Z,61346.71
2022-10-17T08:02:55.411Z,61378.84
2022-10-17T08:03:59.318Z,61335.66
2022-10-17T08:05:02.800Z,61349.72
2022-10-17T08:06:06.576Z,61338.68
2022-10-17T08:07:20.909Z,61394.91
2022-10-17T08:08:16.348Z,61387.88
2022-10-17T08:09:22.496Z,61379.84
2022-10-17T08:10:26.696Z,61408.96
2022-10-17T08:11:30.701Z,61418.00
2022-10-17T08:12:34.514Z,61386.88
2022-10-17T08:13:37.882Z,61424.03
2022-10-17T08:14:41.895Z,61435.07
2022-10-17T08:15:54.527Z,61389.89
2022-10-17T08:16:57.979Z,61431.06
2022-10-17T08:18:01.876Z,61445.12
2022-10-17T08:19:05.525Z,61459.18
2022-10-17T08:20:10.384Z,61473.23
2022-10-17T08:21:18.595Z,61433.07
2022-10-17T08:22:23.310Z,61459.18
2022-10-17T08:23:27.213Z,61425.03
2022-10-17T08:24:31.516Z,61462.19
2022-10-17T08:25:34.903Z,61494.32
2022-10-17T08:26:42.369Z,61472.23
2022-10-17T08:29:04.524Z,61458.17
2022-10-17T08:30:13.853Z,61513.40
2022-10-17T08:31:17.324Z,61493.32
2022-10-17T08:32:23.830Z,61456.16
2022-10-17T08:33:27.176Z,61494.32
2022-10-17T08:34:37.938Z,61469.21
2022-10-17T08:35:41.745Z,61430.05
2022-10-17T08:38:09.036Z,61474.24
2022-10-17T08:39:12.481Z,61487.29
2022-10-17T08:40:16.059Z,61499.34
2022-10-17T08:41:21.167Z,61462.19
2022-10-17T08:42:26.746Z,61495.32
2022-10-17T08:43:45.470Z,61468.21
2022-10-17T08:44:52.040Z,61432.06
2022-10-17T08:45:55.937Z,61476.25
2022-10-17T08:46:59.529Z,61460.18
2022-10-17T08:48:03.124Z,61458.17
2022-10-17T08:49:10.041Z,61438.09
2022-10-17T08:50:12.142Z,61395.91
2022-10-17T08:51:15.961Z,61449.13
2022-10-17T08:52:19.334Z,61440.09
2022-10-17T08:53:23.229Z,61436.08
2022-10-17T08:54:26.833Z,61396.92
2022-10-17T08:55:30.092Z,61451.14
2022-10-17T08:56:47.891Z,61432.06
2022-10-17T08:57:39.428Z,61430.05
2022-10-17T08:58:43.442Z,61424.03
2022-10-17T08:59:47.567Z,61413.99
2022-10-17T09:00:51.742Z,61382.86
2022-10-17T09:01:57.399Z,61379.84
2022-10-17T09:03:09.984Z,61410.98
2022-10-17T09:04:16.956Z,61361.77
2022-10-17T09:05:23.976Z,61382.86
2022-10-17T09:06:26.192Z,61365.79
2022-10-17T09:07:30.308Z,61352.73
2022-10-17T09:08:33.880Z,61382.86
2022-10-17T09:09:37.167Z,61375.83
2022-10-17T09:10:40.767Z,61373.82
2022-10-17T09:11:44.460Z,61375.83
2022-10-17T09:12:47.940Z,61397.92
2022-10-17T09:13:51.108Z,61384.87
2022-10-17T09:14:54.619Z,61442.11
2022-10-17T09:15:58.098Z,61393.90
2022-10-17T09:17:01.809Z,61362.77
2022-10-17T09:18:05.285Z,61409.97
2022-10-17T09:19:08.574Z,61395.91
2022-10-17T09:20:15.453Z,61428.05
2022-10-17T09:21:18.577Z,61388.88
2022-10-17T09:22:22.310Z,61432.06
2022-10-17T09:23:26.010Z,61418.00
2022-10-17T09:24:29.429Z,61379.84
2022-10-17T09:25:33.299Z,61424.03
2022-10-17T09:26:36.984Z,61436.08
2022-10-17T09:27:40.909Z,61395.91
2022-10-17T09:28:44.316Z,61393.90
2022-10-17T09:29:48.468Z,61408.96
2022-10-17T09:31:04.901Z,61406.96
2022-10-17T09:32:08.250Z,61364.78
2022-10-17T09:33:23.108Z,61408.96
2022-10-17T09:34:16.868Z,61382.86
2022-10-17T09:35:20.164Z,61357.75
2022-10-17T09:36:23.855Z,61337.67
2022-10-17T09:37:32.038Z,61374.82
2022-10-17T09:38:35.430Z,61389.89
2022-10-17T09:39:39.243Z,61360.77
2022-10-17T09:40:42.709Z,61371.81
2022-10-17T09:41:47.382Z,61345.70
2022-10-17T09:42:52.274Z,61372.82
2022-10-17T09:45:01.089Z,61373.82
2022-10-17T09:46:05.290Z,61416.00
2022-10-17T09:47:10.215Z,61388.88
2022-10-17T09:48:14.111Z,61413.99
2022-10-17T09:49:17.912Z,61424.03
2022-10-17T09:50:21.186Z,61466.20
2022-10-17T09:51:30.353Z,61424.03
2022-10-17T09:52:33.819Z,61441.10
2022-10-17T09:53:45.571Z,61469.21
2022-10-17T09:54:50.313Z,61422.02
2022-10-17T09:55:55.231Z,61482.27
2022-10-17T09:57:05.323Z,61474.24
2022-10-17T09:58:08.852Z,61476.25
2022-10-17T09:59:13.930Z,61481.27
2022-10-17T10:00:17.477Z,61490.30
2022-10-17T10:01:23.788Z,61493.32
2022-10-17T10:02:26.093Z,61499.34
2022-10-17T10:03:30.808Z,61467.21
2022-10-17T10:04:46.952Z,61476.25
2022-10-17T10:05:41.061Z,61476.25
2022-10-17T10:06:44.666Z,61482.27
2022-10-17T10:07:48.341Z,61496.33
2022-10-17T10:08:51.833Z,61501.35
2022-10-17T10:09:55.828Z,61454.15
2022-10-17T10:10:59.739Z,61530.47
2022-10-17T10:12:05.072Z,61496.33
2022-10-17T10:13:08.661Z,61467.21
2022-10-17T10:14:23.090Z,61475.24
2022-10-17T10:15:39.376Z,61451.14
2022-10-17T10:16:51.386Z,61512.39
2022-10-17T10:19:16.950Z,61465.20
2022-10-17T10:20:20.388Z,61521.43
2022-10-17T10:21:37.322Z,61495.32
2022-10-17T10:36:45.027Z,61523.44
2022-10-17T10:40:21.297Z,61554.57
2022-10-17T10:41:26.274Z,61582.69
2022-10-17T10:44:02.429Z,61521.43
2022-10-17T10:45:23.723Z,61555.57
2022-10-17T10:46:30.601Z,61570.64
2022-10-17T10:47:34.401Z,61537.50
2022-10-17T10:48:41.261Z,61578.67
2022-10-17T10:49:58.352Z,61558.59
2022-10-17T10:51:01.771Z,61583.70
2022-10-17T10:52:12.939Z,61550.55
2022-10-17T10:53:35.348Z,61570.64
2022-10-17T10:55:46.774Z,61548.55
2022-10-17T10:56:53.502Z,61533.48
2022-10-17T10:57:57.127Z,61561.60
2022-10-17T10:59:00.922Z,61561.60
2022-10-17T11:00:08.693Z,61568.63
2022-10-17T11:01:11.940Z,61540.51
2022-10-17T11:02:15.269Z,61568.63
2022-10-17T11:03:21.206Z,61525.45
2022-10-17T11:04:24.913Z,61536.50
2022-10-17T11:05:35.813Z,61543.52
2022-10-17T11:06:39.056Z,61546.54
2022-10-17T11:07:43.166Z,61571.64
2022-10-17T11:08:53.646Z,61544.53
2022-10-17T11:09:56.924Z,61563.61
2022-10-17T11:11:00.173Z,61571.64
2022-10-17T11:12:03.665Z,61578.67
2022-10-17T11:13:06.854Z,61542.52
2022-10-17T11:14:13.761Z,61542.52
2022-10-17T11:15:22.014Z,61533.48
2022-10-17T11:17:49.573Z,61555.57
2022-10-17T11:18:52.768Z,61588.71
2022-10-17T11:19:56.853Z,61555.57
2022-10-17T11:21:01.195Z,61540.51
2022-10-17T11:22:04.794Z,61508.38
2022-10-17T11:23:11.454Z,61545.54
2022-10-17T11:24:19.224Z,61534.49
2022-10-17T11:25:22.294Z,61539.51
2022-10-17T11:26:26.099Z,61504.36
2022-10-17T11:27:29.799Z,61546.54
2022-10-17T11:28:33.225Z,61527.46
2022-10-17T11:29:36.773Z,61507.37
2022-10-17T11:30:41.119Z,61530.47
2022-10-17T11:31:44.871Z,61556.58
2022-10-17T11:32:48.567Z,61516.41
2022-10-17T11:33:51.973Z,61544.53
2022-10-17T11:34:55.442Z,61545.54
2022-10-17T11:35:59.685Z,61509.38
2022-10-17T11:37:05.286Z,61554.57
2022-10-17T11:38:11.294Z,61557.59
2022-10-17T11:39:14.586Z,61529.46
2022-10-17T11:40:21.895Z,61566.62
2022-10-17T11:41:27.744Z,61554.57
2022-10-17T11:42:36.151Z,61535.49
2022-10-17T11:43:40.773Z,61569.64
2022-10-17T11:44:54.616Z,61554.57
2022-10-17T11:45:58.621Z,61542.52
2022-10-17T11:47:09.501Z,61537.50
2022-10-17T11:48:13.360Z,61556.58
2022-10-17T11:49:20.420Z,61560.60
2022-10-17T11:52:51.776Z,61549.55
2022-10-17T11:53:38.072Z,61534.49
2022-10-17T11:54:42.066Z,61536.50
2022-10-17T11:55:45.856Z,61508.38
2022-10-17T11:56:49.565Z,61491.31
2022-10-17T11:57:53.569Z,61498.34
2022-10-17T11:58:56.842Z,61485.28
2022-10-17T12:00:00.535Z,61482.27
2022-10-17T12:01:04.233Z,61471.23
2022-10-17T12:02:07.913Z,61460.18
2022-10-17T12:03:11.826Z,61437.08
2022-10-17T12:04:15.243Z,61441.10
2022-10-17T12:05:18.592Z,61430.05
2022-10-17T12:06:25.823Z,61402.94
2022-10-17T12:07:26.931Z,61416.00
2022-10-17T12:08:31.365Z,61391.89
2022-10-17T12:09:34.707Z,61361.77
2022-10-17T12:10:38.409Z,61367.80
2022-10-17T12:11:42.201Z,61347.71
2022-10-17T12:12:45.481Z,61329.64
2022-10-17T12:13:49.278Z,61341.69
2022-10-17T12:16:16.785Z,61309.55
2022-10-17T12:17:18.201Z,61333.65
2022-10-17T12:18:22.186Z,61320.60
2022-10-17T12:19:27.104Z,61291.48
2022-10-17T12:22:03.056Z,61264.37
2022-10-17T12:23:06.541Z,61249.31
2022-10-17T12:24:12.007Z,61220.19
2022-10-17T12:25:16.184Z,61176.01
2022-10-17T12:26:20.103Z,61122.79
2022-10-17T12:27:23.268Z,61089.65
2022-10-17T12:28:26.787Z,61069.57
2022-10-17T12:29:31.372Z,61043.46
2022-10-17T12:30:35.061Z,60988.24
2022-10-17T12:31:38.953Z,60991.25
2022-10-17T12:33:03.843Z,60940.05
2022-10-17T12:33:47.894Z,60944.06
2022-10-17T12:34:51.697Z,60962.14
2022-10-17T12:35:55.069Z,60950.09
2022-10-17T12:36:58.761Z,60961.13
2022-10-17T12:38:02.168Z,61000.29
2022-10-17T12:39:05.630Z,60961.13
2022-10-17T12:40:09.025Z,61030.41
2022-10-17T12:41:13.750Z,61066.56
2022-10-17T12:42:17.323Z,61040.45
2022-10-17T12:43:20.235Z,61033.43
2022-10-17T12:44:23.484Z,61022.38
2022-10-17T12:45:26.977Z,61002.30
2022-10-17T12:46:30.371Z,60967.16
2022-10-17T12:47:34.156Z,60956.11
2022-10-17T12:48:37.661Z,60916.96
2022-10-17T12:51:30.743Z,60887.84
2022-10-17T12:52:09.211Z,60901.89
2022-10-17T12:53:16.921Z,60867.76
2022-10-17T12:54:17.967Z,60835.63
2022-10-17T12:55:22.643Z,60827.60
2022-10-17T12:56:26.373Z,60821.57
2022-10-17T12:57:30.312Z,60785.43
2022-10-17T12:58:34.470Z,60809.52
2022-10-17T12:59:38.244Z,60806.51
2022-10-17T13:00:49.708Z,60787.43
2022-10-17T13:01:47.217Z,60761.33
2022-10-17T13:02:51.787Z,60795.46
2022-10-17T13:03:55.275Z,60764.34
2022-10-17T13:04:59.691Z,60832.62
2022-10-17T13:06:03.282Z,60842.66
2022-10-17T13:07:06.870Z,60855.71
2022-10-17T13:08:10.565Z,60851.69
2022-10-17T13:09:13.742Z,60844.66
2022-10-17T13:10:20.434Z,60823.58
2022-10-17T13:11:23.992Z,60782.41
2022-10-17T13:12:28.619Z,60733.22
2022-10-17T13:17:12.370Z,60825.59
2022-10-17T13:18:19.345Z,60845.67
2022-10-17T13:19:23.057Z,60765.35
2022-10-17T13:20:30.435Z,60725.19
2022-10-17T13:21:31.853Z,60740.25
2022-10-17T13:22:35.752Z,60709.13
2022-10-17T13:23:39.765Z,60672.98
2022-10-17T13:24:44.172Z,60647.88
2022-10-17T13:25:47.649Z,60670.97
2022-10-17T13:26:51.031Z,60656.91
2022-10-17T13:27:54.635Z,60641.86
2022-10-17T13:28:58.495Z,60613.75
2022-10-17T13:30:02.332Z,60636.84
2022-10-17T13:31:05.510Z,60625.79
2022-10-17T13:32:10.025Z,60640.85
2022-10-17T13:33:13.296Z,60637.84
2022-10-17T13:34:17.001Z,60644.87
2022-10-17T13:35:27.771Z,60662.94
2022-10-17T13:36:25.110Z,60648.89